Latest Weather Observations for Cape Leeuwin

IDW60801

Issued at 10:04 pm WST Thursday 23 March 2017 (issued every 30 minutes, with the page automatically refreshed every 10 minutes)

About weather observations | Map of weather stations | Latest weather observations for WA | Other Formats
Station Details ID: 009518 Name: CAPE LEEUWIN Lat: -34.37 Lon: 115.14 Height: 13.0 m
Data from the previous 72 hours. | See also: Recent months at Cape Leeuwin
Date/Time
WST
Temp
°C
App
Temp
°C
Dew
Point
°C
Rel
Hum
%
Delta-T
°C
Wind Press
QNH
hPa
Press
MSL
hPa
Rain since
9am
mm
Dir  Spd
km/h
Gust
km/h
Spd
kts
Gust
kts
23/10:00pm 17.6 15.1 16.1 91 0.9 SSE 24 33 13 18 1015.9 1015.8 0.6
23/09:30pm 17.7 15.3 16.5 93 0.7 SSE 24 32 13 17 1015.8 1015.7 0.6
23/09:00pm 17.6 14.8 16.3 92 0.8 SSE 26 33 14 18 1015.7 1015.6 0.6
23/08:30pm 17.6 14.0 16.3 92 0.8 S 30 41 16 22 1015.6 1015.5 0.6
23/08:00pm 18.3 15.0 16.1 87 1.3 S 28 35 15 19 1015.3 1015.2 0.6
23/07:30pm 18.3 14.1 15.6 84 1.6 SSW 32 41 17 22 1014.8 1014.7 0.6
23/07:00pm 18.2 14.0 15.8 86 1.4 SSW 32 41 17 22 1014.5 1014.4 0.6
23/06:30pm 18.1 15.0 16.6 91 0.9 S 28 39 15 21 1014.2 1014.1 0.2
23/06:00pm 18.7 14.1 16.2 85 1.5 SSW 35 43 19 23 1014.0 1013.9 0.2
23/05:30pm 18.4 14.0 16.6 89 1.1 SSW 35 44 19 24 1013.8 1013.7 0.2
23/05:00pm 18.3 13.8 16.5 89 1.1 SSW 35 46 19 25 1013.5 1013.4 0.2
23/04:30pm 18.6 14.1 16.4 87 1.3 SSW 35 46 19 25 1013.5 1013.4 0.2
23/04:00pm 19.2 15.0 16.2 83 1.8 SSW 33 43 18 23 1013.3 1013.2 0.2
23/03:30pm 19.2 15.1 16.5 84 1.6 SSW 33 44 18 24 1013.1 1013.0 0.2
23/03:00pm 19.3 14.8 16.5 84 1.7 SSW 35 43 19 23 1012.9 1012.8 0.2
23/02:30pm 19.0 14.8 16.3 84 1.6 SSW 33 41 18 22 1012.8 1012.7 0.2
23/02:00pm 18.6 14.0 16.1 85 1.5 SSW 35 43 19 23 1012.9 1012.8 0.2
23/01:30pm 18.7 13.5 16.5 87 1.3 SSW 39 46 21 25 1012.7 1012.6 0.2
23/01:00pm 19.2 14.9 15.8 81 2.0 SSW 33 43 18 23 1012.8 1012.7 0.2
23/12:30pm 18.2 14.1 16.5 90 1.0 SSW 33 44 18 24 1012.9 1012.8 0.2
23/12:00pm 18.4 13.8 17.1 92 0.8 SSW 37 50 20 27 1013.0 1012.9 0.0
23/11:30am 18.6 14.1 16.3 86 1.4 SSW 35 48 19 26 1013.0 1012.9 0.0
23/11:00am 19.1 15.1 16.6 85 1.5 SSW 33 44 18 24 1013.0 1012.9 0.0
23/10:30am 18.8 14.0 16.5 86 1.4 SSW 37 48 20 26 1013.1 1013.0 0.0
23/10:00am 18.6 14.7 16.9 90 1.0 SSW 33 43 18 23 1013.0 1012.9 0.0
23/09:30am 18.2 13.4 16.5 90 1.0 SSW 37 46 20 25 1012.9 1012.8 0.0
23/09:00am 18.0 12.9 16.7 92 0.8 SSW 39 48 21 26 1012.7 1012.6 5.0
23/08:30am 17.6 12.0 16.6 94 0.6 SSW 41 50 22 27 1012.7 1012.6 5.0
23/08:00am 17.3 12.5 16.6 96 0.4 SSW 37 57 20 31 1012.6 1012.5 5.0
23/07:56am 17.2 12.1 16.7 97 0.3 SSW 39 57 21 31 1012.5 1012.4 4.8
23/07:30am 17.7 12.9 16.5 93 0.7 SSW 37 50 20 27 1012.3 1012.2 4.2
23/07:00am 17.4 12.1 16.4 94 0.6 SSW 39 50 21 27 1012.1 1012.0 4.2
23/06:30am 17.3 12.5 16.5 95 0.5 SSW 37 46 20 25 1011.8 1011.7 3.6
23/06:00am 17.5 12.2 16.2 92 0.8 SSW 39 50 21 27 1011.5 1011.4 3.0
23/05:30am 17.5 12.7 16.5 94 0.6 SSW 37 48 20 26 1011.2 1011.1 3.0
23/05:00am 17.5 12.5 16.2 92 0.8 SSW 37 48 20 26 1011.0 1010.9 2.6
23/04:30am 17.5 11.4 16.3 93 0.7 SW 43 54 23 29 1010.7 1010.6 2.6
23/04:00am 17.7 11.5 16.0 90 1.0 SW 43 52 23 28 1010.4 1010.3 2.4
23/03:30am 17.5 11.9 15.6 89 1.1 SW 39 50 21 27 1010.2 1010.1 2.2
23/03:00am 17.9 13.4 16.4 91 0.9 SW 35 44 19 24 1010.2 1010.1 2.2
23/02:41am 17.2 12.1 15.7 91 0.9 SW 37 56 20 30 1010.4 1010.3 2.2
23/02:30am 17.8 13.1 15.8 88 1.2 SSW 35 50 19 27 1010.2 1010.1 1.8
23/02:00am 17.4 12.4 16.2 93 0.7 SSW 37 50 20 27 1010.1 1010.0 1.8
23/01:30am 17.8 13.0 16.5 92 0.8 SSW 37 46 20 25 1010.1 1010.0 1.6
23/01:00am 17.6 13.2 16.6 94 0.6 SSW 35 46 19 25 1009.9 1009.8 1.2
23/12:30am 17.9 12.8 15.9 88 1.2 SSW 37 50 20 27 1009.8 1009.7 1.0
23/12:00am 17.8 13.0 16.5 92 0.8 SSW 37 48 20 26 1010.0 1009.9 1.0
 
Date/Time
WST
Temp
°C
App
Temp
°C
Dew
Point
°C
Rel
Hum
%
Delta-T
°C
Wind Press
QNH
hPa
Press
MSL
hPa
Rain since
9am
mm
Dir  Spd
km/h
Gust
km/h
Spd
kts
Gust
kts
22/11:30pm 18.0 12.7 16.3 90 1.0 SSW 39 48 21 26 1009.9 1009.8 0.8
22/11:00pm 17.9 12.6 16.2 90 1.0 SSW 39 52 21 28 1009.9 1009.8 0.8
22/10:30pm 18.5 13.9 16.0 85 1.5 SSW 35 46 19 25 1009.8 1009.7 0.8
22/10:00pm 18.5 13.2 15.3 81 1.9 SSW 37 50 20 27 1010.0 1009.9 0.8
22/09:30pm 18.4 13.3 15.7 84 1.6 SSW 37 50 20 27 1009.9 1009.8 0.8
22/09:14pm 18.5 13.9 16.2 86 1.4 S 35 54 19 29 1009.9 1009.8 0.8
22/09:00pm 18.6 14.4 16.1 85 1.5 S 33 44 18 24 1009.8 1009.7 0.8
22/08:30pm 18.6 13.9 15.9 84 1.6 S 35 48 19 26 1009.5 1009.4 0.8
22/08:00pm 18.6 13.7 16.3 86 1.4 S 37 50 20 27 1009.0 1008.9 0.8
22/07:30pm 18.7 14.8 16.9 89 1.1 S 33 46 18 25 1008.4 1008.3 0.8
22/07:00pm 18.9 14.8 17.3 90 1.0 S 35 44 19 24 1007.8 1007.7 0.8
22/06:49pm 19.0 15.5 17.4 90 1.0 S 32 43 17 23 1007.7 1007.6 0.8
22/06:30pm 19.7 18.5 16.0 79 2.2 S 17 22 9 12 1007.4 1007.3 0.2
22/06:00pm 19.7 19.0 16.4 81 2.0 SSW 15 19 8 10 1007.1 1007.0 0.2
22/05:30pm 20.3 19.1 16.1 77 2.5 SSW 17 22 9 12 1006.8 1006.7 0.2
22/05:00pm 20.7 18.9 15.9 74 2.9 SW 20 24 11 13 1006.5 1006.4 0.2
22/04:30pm 21.4 20.3 16.3 72 3.1 SW 17 22 9 12 1006.2 1006.1 0.2
22/04:00pm 20.9 19.6 15.9 73 3.0 SW 17 20 9 11 1006.0 1005.9 0.2
22/03:30pm 21.0 19.3 15.8 72 3.1 WSW 19 24 10 13 1005.9 1005.8 0.2
22/03:00pm 20.5 19.1 15.6 73 2.9 WSW 17 19 9 10 1005.7 1005.6 0.2
22/02:30pm 20.2 18.8 15.5 74 2.8 WSW 17 20 9 11 1005.5 1005.4 0.2
22/02:00pm 20.8 20.0 15.2 70 3.3 WSW 13 15 7 8 1005.4 1005.3 0.2
22/01:30pm 21.1 20.8 15.4 70 3.4 WSW 11 15 6 8 1005.4 1005.3 0.2
22/01:00pm 20.4 20.0 15.2 72 3.1 SW 11 13 6 7 1005.4 1005.3 0.2
22/12:30pm 20.2 20.2 15.3 73 2.9 S 9 13 5 7 1005.4 1005.3 0.2
22/12:00pm 20.2 20.4 15.7 75 2.7 ESE 9 11 5 6 1005.3 1005.2 0.2
22/11:30am 19.8 19.7 16.0 79 2.3 ESE 11 15 6 8 1005.3 1005.2 0.0
22/11:00am 19.9 18.9 15.5 76 2.6 E 15 17 8 9 1005.3 1005.2 0.0
22/10:30am 18.9 17.6 15.7 82 1.9 E 17 19 9 10 1005.5 1005.4 0.0
22/10:00am 18.5 16.4 15.1 80 2.0 E 20 26 11 14 1005.8 1005.7 0.0
22/09:30am 18.5 16.0 15.1 80 2.0 E 22 30 12 16 1005.8 1005.7 0.0
22/09:00am 17.7 14.0 15.1 85 1.5 E 28 32 15 17 1005.8 1005.7 51.4
22/08:30am 17.8 13.4 15.2 85 1.5 E 32 35 17 19 1005.8 1005.7 51.4
22/08:00am 17.6 13.0 15.2 86 1.4 E 33 37 18 20 1005.6 1005.5 51.4
22/07:30am 17.5 12.5 15.1 86 1.4 E 35 43 19 23 1005.6 1005.5 51.4
22/07:00am 17.3 10.8 15.1 87 1.3 ESE 43 46 23 25 1005.4 1005.3 51.4
22/06:30am 17.2 10.7 15.0 87 1.3 ESE 43 54 23 29 1005.3 1005.2 51.4
22/06:00am 17.2 10.1 15.1 87 1.2 ESE 46 57 25 31 1005.2 1005.1 51.4
22/05:30am 17.3 9.9 15.2 87 1.2 ESE 48 61 26 33 1005.3 1005.2 51.4
22/05:00am 17.0 9.9 14.9 87 1.2 ESE 46 59 25 32 1005.4 1005.3 51.4
22/04:30am 16.5 9.8 15.1 91 0.8 SE 44 52 24 28 1005.9 1005.8 51.4
22/04:00am 16.3 9.7 15.4 94 0.5 SE 44 59 24 32 1006.2 1006.1 50.8
22/03:30am 16.1 9.5 15.4 96 0.4 SE 44 59 24 32 1006.9 1006.8 48.2
22/03:00am 16.6 8.9 15.6 94 0.6 ESE 50 63 27 34 1007.3 1007.2 44.6
22/02:30am 16.5 8.8 15.6 94 0.5 SE 50 61 27 33 1007.9 1007.8 41.4
22/02:00am 16.3 9.3 15.4 94 0.5 SE 46 56 25 30 1008.3 1008.2 38.0
22/01:30am 16.3 9.2 15.1 93 0.7 SE 46 59 25 32 1008.9 1008.8 34.4
22/01:00am 16.5 9.2 15.6 94 0.5 SE 48 61 26 33 1009.2 1009.1 30.0
22/12:30am 16.5 8.4 15.5 94 0.6 ESE 52 63 28 34 1008.9 1008.8 25.8
22/12:00am 16.6 9.0 15.7 94 0.5 ESE 50 63 27 34 1009.5 1009.4 21.2
 
Date/Time
WST
Temp
°C
App
Temp
°C
Dew
Point
°C
Rel
Hum
%
Delta-T
°C
Wind Press
QNH
hPa
Press
MSL
hPa
Rain since
9am
mm
Dir  Spd
km/h
Gust
km/h
Spd
kts
Gust
kts
21/11:30pm 17.0 11.2 16.0 94 0.6 SE 41 54 22 29 1010.0 1009.9 18.0
21/11:00pm 16.2 10.3 14.8 91 0.8 SE 39 50 21 27 1010.9 1010.8 14.6
21/10:30pm 16.1 10.2 14.7 91 0.8 ESE 39 46 21 25 1010.8 1010.7 12.4
21/10:00pm 16.2 11.4 14.5 90 1.0 SE 33 41 18 22 1011.6 1011.5 11.4
21/09:30pm 16.1 10.4 14.3 89 1.0 ESE 37 43 20 23 1012.0 1011.9 8.0
21/09:19pm 16.6 12.7 14.3 86 1.3 SE 28 44 15 24 1012.0 1011.9 7.0
21/09:00pm 16.6 14.7 14.1 85 1.4 ENE 17 22 9 12 1012.6 1012.5 4.8
21/08:30pm 17.1 12.1 14.1 82 1.7 ESE 33 46 18 25 1011.9 1011.8 3.4
21/08:00pm 18.3 11.0 13.4 73 2.8 ESE 44 54 24 29 1011.2 1011.1 2.6
21/07:30pm 19.0 11.5 12.8 67 3.5 ESE 44 59 24 32 1010.8 1010.7 2.6
21/07:00pm 18.6 11.8 15.9 84 1.6 SE 46 59 25 32 1010.7 1010.6 2.6
21/06:30pm 18.0 12.7 14.2 78 2.2 SE 35 43 19 23 1010.8 1010.7 2.2
21/06:00pm 18.7 13.7 16.0 84 1.6 SE 37 46 20 25 1010.6 1010.5 1.0
21/05:30pm 20.0 13.1 14.5 70 3.2 SE 44 57 24 31 1009.8 1009.7 0.0
21/05:00pm 19.8 12.4 15.2 75 2.7 SE 48 61 26 33 1008.7 1008.6 0.0
21/04:30pm 19.9 11.7 14.2 69 3.3 SE 50 65 27 35 1009.1 1009.0 0.0
21/04:00pm 20.2 12.9 14.4 69 3.4 SE 46 65 25 35 1009.3 1009.2 0.0
21/03:58pm 20.3 13.0 14.5 69 3.4 SE 46 65 25 35 1009.3 1009.2 0.0
21/03:30pm 20.9 12.9 13.6 63 4.2 SE 48 61 26 33 1009.0 1008.9 0.0
21/03:00pm 21.3 13.2 13.3 60 4.6 SE 48 61 26 33 1009.3 1009.2 0.0
21/02:30pm 21.1 14.0 13.9 63 4.2 SE 44 56 24 30 1009.9 1009.8 0.0
21/02:00pm 21.0 13.7 13.5 62 4.3 SE 44 57 24 31 1010.1 1010.0 0.0
21/01:30pm 21.8 16.0 12.7 56 5.2 SE 35 48 19 26 1010.7 1010.6 0.0
21/01:00pm 21.5 16.1 12.1 55 5.3 SE 32 41 17 22 1010.9 1010.8 0.0
21/12:30pm 21.1 15.0 11.6 54 5.3 ESE 35 43 19 23 1011.4 1011.3 0.0
21/12:00pm 20.4 14.8 12.2 59 4.6 SE 33 39 18 21 1012.2 1012.1 0.0
21/11:30am 19.0 13.1 11.3 61 4.2 ESE 33 41 18 22 1012.7 1012.6 0.0
21/11:00am 18.6 12.7 10.6 59 4.3 ESE 32 39 17 21 1013.5 1013.4 0.0
21/10:30am 19.4 13.9 10.5 56 4.8 ESE 30 35 16 19 1013.9 1013.8 0.0
21/10:00am 18.3 10.4 10.7 61 4.1 E 43 46 23 25 1013.7 1013.6 0.0
21/09:30am 18.2 10.9 10.1 59 4.3 E 39 46 21 25 1013.9 1013.8 0.0
21/09:00am 17.1 9.4 10.3 64 3.6 E 41 46 22 25 1013.8 1013.7 0.0
21/08:30am 17.3 10.2 10.8 65 3.5 E 39 48 21 26 1013.9 1013.8 0.0
21/08:00am 16.7 10.0 10.9 68 3.1 E 37 44 20 24 1013.8 1013.7 0.0
21/07:30am 16.3 9.6 9.6 64 3.5 ENE 35 43 19 23 1014.0 1013.9 0.0
21/07:00am 16.3 8.8 9.6 64 3.5 ENE 39 46 21 25 1013.6 1013.5 0.0
21/06:30am 16.3 9.8 10.2 67 3.2 ENE 35 43 19 23 1013.1 1013.0 0.0
21/06:00am 16.2 8.9 10.3 68 3.1 ENE 39 44 21 24 1013.3 1013.2 0.0
21/05:30am 16.3 9.8 10.2 67 3.2 ENE 35 41 19 22 1013.4 1013.3 0.0
21/05:00am 15.9 9.2 9.5 66 3.3 ENE 35 46 19 25 1013.8 1013.7 0.0
21/04:30am 16.0 8.6 9.7 66 3.3 ENE 39 48 21 26 1013.6 1013.5 0.0
21/04:00am 16.0 8.9 9.7 66 3.3 ENE 37 44 20 24 1013.7 1013.6 0.0
21/03:30am 16.2 9.5 9.7 65 3.4 ENE 35 46 19 25 1014.2 1014.1 0.0
21/03:00am 16.2 9.1 9.7 65 3.4 ENE 37 48 20 26 1014.5 1014.4 0.0
21/02:30am 16.4 9.1 10.1 66 3.3 ENE 39 48 21 26 1014.7 1014.6 0.0
21/02:00am 16.4 8.2 9.7 64 3.5 ENE 43 52 23 28 1014.8 1014.7 0.0
21/01:30am 16.4 9.0 9.7 64 3.5 ENE 39 50 21 27 1015.1 1015.0 0.0
21/01:00am 16.5 9.3 9.1 61 3.8 ENE 37 52 20 28 1015.0 1014.9 0.0
21/12:30am 16.8 9.6 9.3 61 3.9 ENE 37 50 20 27 1015.5 1015.4 0.0
21/12:00am 17.5 9.5 10.4 63 3.8 ENE 43 52 23 28 1015.1 1015.0 0.0
 
Date/Time
WST
Temp
°C
App
Temp
°C
Dew
Point
°C
Rel
Hum
%
Delta-T
°C
Wind Press
QNH
hPa
Press
MSL
hPa
Rain since
9am
mm
Dir  Spd
km/h
Gust
km/h
Spd
kts
Gust
kts
20/11:30pm 17.7 10.1 10.4 62 3.9 E 41 54 22 29 1015.4 1015.3 0.0
20/11:00pm 18.1 10.1 10.4 60 4.1 E 43 50 23 27 1015.4 1015.3 0.0
20/10:30pm 18.5 11.8 10.9 61 4.1 E 37 46 20 25 1015.9 1015.8 0.0

Other Formats:

Comma delimited format used in spreadsheet applications
http://www.bom.gov.au/fwo/IDW60801/IDW60801.94601.axf

JavaScript Object Notation format (JSON) in row-major order
http://www.bom.gov.au/fwo/IDW60801/IDW60801.94601.json